WetterOnline ( https://www.wetteronline.at )

Wetter aktuell Helgoland

Aktuelles Wetter: Helgoland/Düne (8m)

6-stündlich | Neueste Meldungen
Ortszeit Temperatur Wetter
Fr, 02.12. 19:00 5.4° C bedeckt
Fr, 02.12. 13:00 4.1° C bedeckt
Fr, 02.12. 7:00 4.8° C bedeckt
Fr, 02.12. 1:00 5.3° C Sprühregen
Do, 01.12. 19:00 6.1° C bedeckt
Do, 01.12. 13:00 5.9° C bedeckt
Do, 01.12. 7:00 6.0° C Sprühregen
Do, 01.12. 1:00 6.1° C bewölkt
Ortszeit Temperatur Wetter
Sa, 03.12. 0:30 5.6° C bedeckt
Sa, 03.12. 0:20 5.6° C bedeckt
Sa, 03.12. 0:10 5.7° C bedeckt
Sa, 03.12. 0:00 5.8° C bewölkt
Fr, 02.12. 23:50 5.8° C bewölkt
Fr, 02.12. 23:40 5.9° C bewölkt
Fr, 02.12. 23:30 5.9° C bedeckt
Fr, 02.12. 23:00 5.6° C bedeckt
Fr, 02.12. 22:30 5.5° C leichter Regen
Fr, 02.12. 22:00 5.8° C bedeckt
Fr, 02.12. 21:30 5.8° C bedeckt
Ortszeit Relative Feuchte Sichtweite
Fr, 02.12. 19:00 78% 25 km
Fr, 02.12. 13:00 80% 18 km
Fr, 02.12. 7:00 82% 18 km
Fr, 02.12. 1:00 86% 7 km
Do, 01.12. 19:00 80% 10 km
Do, 01.12. 13:00 75% 15 km
Do, 01.12. 7:00 86% 12 km
Do, 01.12. 1:00 86% 13 km
Ortszeit Relative Feuchte Sichtweite
Sa, 03.12. 0:30 87% 24 km
Sa, 03.12. 0:20 87% -
Sa, 03.12. 0:10 87% -
Sa, 03.12. 0:00 86% 17 km
Fr, 02.12. 23:50 86% -
Fr, 02.12. 23:40 86% -
Fr, 02.12. 23:30 85% 26 km
Fr, 02.12. 23:00 86% 15 km
Fr, 02.12. 22:30 88% 16 km
Fr, 02.12. 22:00 84% 27 km
Fr, 02.12. 21:30 83% 25 km
Ortszeit Niederschlagsmenge Niederschlagsart
Fr, 02.12. 19:00 0.3 l/m2 in 12 Std. -
Fr, 02.12. 13:00 0.3 l/m2 in 6 Std. Regen
Fr, 02.12. 7:00 0.1 l/m2 in 12 Std. Regen
Fr, 02.12. 1:00 0.1 l/m2 in 6 Std. Sprühregen
Do, 01.12. 19:00 0.1 l/m2 in 12 Std. Sprühregen
Do, 01.12. 13:00 0.1 l/m2 in 6 Std. Regen
Do, 01.12. 7:00 0.1 l/m2 in 12 Std. Regen
Do, 01.12. 1:00 0.0 l/m2 in 6 Std. -
Ortszeit Niederschlagsmenge Niederschlagsart
Sa, 03.12. 0:30 0.0 l/m2 in 30 Min -
Sa, 03.12. 0:20 keine Meldung -
Sa, 03.12. 0:10 keine Meldung -
Sa, 03.12. 0:00 <0.05 l/m2 in 1 Std. Regen
Fr, 02.12. 23:50 keine Meldung -
Fr, 02.12. 23:40 keine Meldung -
Fr, 02.12. 23:30 <0.05 l/m2 in 30 Min Schneeregen
Fr, 02.12. 23:00 <0.05 l/m2 in 1 Std. Regen
Fr, 02.12. 22:30 <0.05 l/m2 in 30 Min -
Fr, 02.12. 22:00 <0.05 l/m2 in 1 Std. Sprühregen
Fr, 02.12. 21:30 0.0 l/m2 in 30 Min -
Ortszeit Stärke Spitze Richtung
km/h Bft. km/h Grad Sektor
Fr, 02.12. 19:00 31 5 50 60° NO
Fr, 02.12. 13:00 33 5 43 90° O
Fr, 02.12. 7:00 29 5 36 80° O
Fr, 02.12. 1:00 22 4 33 90° O
Do, 01.12. 19:00 25 4 32 90° O
Do, 01.12. 13:00 22 4 36 90° O
Do, 01.12. 7:00 18 3 32 80° O
Do, 01.12. 1:00 20 4 33 50° NO
Ortszeit Stärke Spitze Richtung
km/h Bft. km/h Grad Sektor
Sa, 03.12. 0:30 41 6 54 60° NO
Sa, 03.12. 0:20 41 6 - 60° NO
Sa, 03.12. 0:10 40 6 - 60° NO
Sa, 03.12. 0:00 39 6 54 60° NO
Fr, 02.12. 23:50 39 6 - 60° NO
Fr, 02.12. 23:40 37 5 - 60° NO
Fr, 02.12. 23:30 40 6 50 60° NO
Fr, 02.12. 23:00 37 5 52 60° NO
Fr, 02.12. 22:30 39 6 52 60° NO
Fr, 02.12. 22:00 35 5 48 50° NO
Fr, 02.12. 21:30 36 5 47 50° NO
Ortszeit Untergrenze Bedeckung Gattung
total tief tief mittel hoch
Fr, 02.12. 19:00 510 m 8/8 8/8 - - -
Fr, 02.12. 13:00 450 m 8/8 8/8 - - -
Fr, 02.12. 7:00 450 m 8/8 8/8 - - -
Fr, 02.12. 1:00 330 m 8/8 8/8 - - -
Do, 01.12. 19:00 450 m 8/8 8/8 - - -
Do, 01.12. 13:00 570 m 8/8 8/8 - - -
Do, 01.12. 7:00 360 m 8/8 8/8 - - -
Do, 01.12. 1:00 330 m 7/8 7/8 - - -
Ortszeit Bedeckungsgrad in Achtel und Wolkenuntergrenze
Sa, 03.12. 0:30 6(330m) 8(510m)
Sa, 03.12. 0:20 6(330m) 8(510m)
Sa, 03.12. 0:10 8
Sa, 03.12. 0:00 6(330m) 7(510m) 7(990m)
Fr, 02.12. 23:50 6(330m) 7(510m) 7(990m)
Fr, 02.12. 23:40 7
Fr, 02.12. 23:30 7(420m) 8(720m)
Fr, 02.12. 23:00 6(390m) 8(630m)
Fr, 02.12. 22:30 2(330m) 6(690m) 8(870m)
Fr, 02.12. 22:00 6(450m) 8(810m)
Fr, 02.12. 21:30 5(450m) 7(750m) 8(1050m)
Ortszeit Luftdruck NN (hPa) Tendenz (hPa in 3 Std.)
Fr, 02.12. 19:00 1029 + 0,4
Fr, 02.12. 13:00 1029 - 0,1
Fr, 02.12. 7:00 1028 - 0,2
Fr, 02.12. 1:00 1029 - 0,5
Do, 01.12. 19:00 1029 + 0,4
Do, 01.12. 13:00 1030 - 0,2
Do, 01.12. 7:00 1029 0,0
Do, 01.12. 1:00 1029 + 0,2
Ortszeit Luftdruck NN (hPa) Tendenz (hPa in 3 Std.)
Sa, 03.12. 0:30 1028 - 0,6
Sa, 03.12. 0:20 1028 keine Meldung
Sa, 03.12. 0:10 1028 keine Meldung
Sa, 03.12. 0:00 1028 - 0,6
Fr, 02.12. 23:50 1028 keine Meldung
Fr, 02.12. 23:40 1028 keine Meldung
Fr, 02.12. 23:30 1028 - 0,7
Fr, 02.12. 23:00 1028 - 0,7
Fr, 02.12. 22:30 1028 - 0,8
Fr, 02.12. 22:00 1028 - 0,6
Fr, 02.12. 21:30 1029 - 0,5
Ortszeit Schneehöhe (cm)
Fr, 02.12. 19:00 0
Fr, 02.12. 13:00 0
Fr, 02.12. 7:00 0
Fr, 02.12. 1:00 0
Do, 01.12. 19:00 0
Do, 01.12. 13:00 0
Do, 01.12. 7:00 0
Do, 01.12. 1:00 0
Ortszeit Schneehöhe (cm)
Sa, 03.12. 0:30 0
Sa, 03.12. 0:20 0
Sa, 03.12. 0:10 0
Sa, 03.12. 0:00 0
Fr, 02.12. 23:50 0
Fr, 02.12. 23:40 0
Fr, 02.12. 23:30 0
Fr, 02.12. 23:00 0
Fr, 02.12. 22:30 0
Fr, 02.12. 22:00 0
Fr, 02.12. 21:30 0
Link zu dieser Seite / Seite empfehlen

Das Wetter in ...